createdAt,value
2017-11-11T00:00:28.947Z,22.10
2017-11-11T00:02:56.768Z,22.10
2017-11-11T00:05:24.339Z,22.10
2017-11-11T00:07:51.899Z,22.10
2017-11-11T00:10:19.473Z,22.10
2017-11-11T00:12:47.027Z,22.10
2017-11-11T00:15:14.802Z,22.10
2017-11-11T00:17:42.383Z,22.20
2017-11-11T00:20:09.964Z,22.20
2017-11-11T00:22:37.791Z,22.20
2017-11-11T00:25:05.852Z,22.20
2017-11-11T00:27:33.427Z,22.20
2017-11-11T00:30:01.006Z,22.20
2017-11-11T00:32:29.392Z,22.20
2017-11-11T00:34:57.699Z,22.20
2017-11-11T00:37:25.414Z,22.10
2017-11-11T00:39:53.776Z,22.20
2017-11-11T00:42:21.302Z,22.10
2017-11-11T00:44:48.840Z,22.20
2017-11-11T00:47:16.419Z,22.10
2017-11-11T00:49:43.979Z,22.20
2017-11-11T00:52:11.544Z,22.20
2017-11-11T00:54:39.225Z,22.20
2017-11-11T00:57:06.806Z,22.10
2017-11-11T00:59:34.357Z,22.10
2017-11-11T01:02:01.933Z,22.20
2017-11-11T01:04:30.556Z,22.10
2017-11-11T01:06:58.288Z,22.10
2017-11-11T01:09:26.619Z,22.10
2017-11-11T01:11:54.169Z,22.20
2017-11-11T01:14:21.778Z,22.10
2017-11-11T01:16:49.363Z,22.10
2017-11-11T01:19:16.926Z,22.10
2017-11-11T01:21:44.617Z,22.10
2017-11-11T01:24:12.201Z,22.10
2017-11-11T01:26:39.778Z,22.20
2017-11-11T01:29:07.340Z,22.20
2017-11-11T01:31:34.962Z,22.10
2017-11-11T01:34:02.508Z,22.10
2017-11-11T01:36:30.099Z,22.10
2017-11-11T01:38:57.691Z,22.10
2017-11-11T01:41:26.024Z,22.10
2017-11-11T01:43:53.595Z,22.10
2017-11-11T01:46:21.180Z,22.20
2017-11-11T01:48:49.532Z,22.10
2017-11-11T01:51:17.118Z,22.10
2017-11-11T01:53:44.680Z,22.10
2017-11-11T01:56:13.024Z,22.20
2017-11-11T01:58:40.621Z,22.10
2017-11-11T02:01:08.957Z,22.20
2017-11-11T02:03:36.519Z,22.10
2017-11-11T02:06:04.100Z,22.10
2017-11-11T02:08:31.688Z,22.20
2017-11-11T02:11:00.045Z,22.20
2017-11-11T02:13:27.608Z,22.10
2017-11-11T02:15:55.178Z,22.10
2017-11-11T02:18:23.533Z,22.20
2017-11-11T02:20:51.082Z,22.10
2017-11-11T02:23:18.651Z,22.20
2017-11-11T02:25:46.244Z,22.10
2017-11-11T02:28:14.567Z,22.10
2017-11-11T02:30:42.146Z,22.10
2017-11-11T02:33:09.693Z,22.10
2017-11-11T02:35:37.268Z,22.10
2017-11-11T02:38:04.891Z,22.10
2017-11-11T02:40:32.460Z,22.10
2017-11-11T02:43:00.168Z,22.10
2017-11-11T02:45:28.570Z,22.10
2017-11-11T02:47:56.093Z,22.10
2017-11-11T02:50:23.652Z,22.10
2017-11-11T02:52:51.206Z,22.10
2017-11-11T02:55:18.792Z,22.10
2017-11-11T02:57:47.104Z,22.10
2017-11-11T03:00:14.668Z,22.10
2017-11-11T03:02:42.275Z,22.10
2017-11-11T03:05:10.716Z,22.10
2017-11-11T03:07:38.304Z,22.10
2017-11-11T03:10:05.847Z,22.10
2017-11-11T03:12:33.576Z,22.10
2017-11-11T03:15:01.139Z,22.10
2017-11-11T03:17:28.748Z,22.20
2017-11-11T03:19:56.299Z,22.10
2017-11-11T03:22:24.044Z,22.10
2017-11-11T03:24:51.760Z,22.10
2017-11-11T03:27:20.250Z,22.10
2017-11-11T03:29:48.600Z,22.10
2017-11-11T03:32:16.292Z,22.10
2017-11-11T03:34:43.948Z,22.10
2017-11-11T03:37:12.272Z,22.10
2017-11-11T03:39:39.854Z,22.10
2017-11-11T03:42:08.173Z,22.10
2017-11-11T03:44:35.735Z,22.10
2017-11-11T03:47:03.308Z,22.10
2017-11-11T03:49:30.850Z,22.10
2017-11-11T03:51:58.439Z,22.10
2017-11-11T03:54:26.012Z,22.10
2017-11-11T03:56:53.569Z,22.10
2017-11-11T03:59:21.148Z,22.10
2017-11-11T04:01:50.212Z,22.10
2017-11-11T04:04:17.750Z,22.10
2017-11-11T04:06:45.312Z,22.10
2017-11-11T04:09:12.876Z,22.10
2017-11-11T04:11:40.452Z,22.10
2017-11-11T04:14:08.040Z,22.10
2017-11-11T04:16:35.629Z,22.10
2017-11-11T04:19:03.945Z,22.10
2017-11-11T04:21:31.547Z,22.10
2017-11-11T04:23:59.110Z,22.10
2017-11-11T04:26:26.702Z,22.10
2017-11-11T04:28:54.236Z,22.10
2017-11-11T04:31:22.728Z,22.10
2017-11-11T04:33:51.056Z,22.10
2017-11-11T04:36:18.670Z,22.10
2017-11-11T04:38:46.205Z,22.10
2017-11-11T04:41:13.776Z,22.10
2017-11-11T04:43:42.109Z,22.10
2017-11-11T04:46:09.676Z,22.10
2017-11-11T04:48:37.263Z,22.10
2017-11-11T04:51:04.854Z,22.10
2017-11-11T04:53:32.404Z,22.10
2017-11-11T04:56:00.804Z,22.10
2017-11-11T04:58:28.435Z,22.10
2017-11-11T05:00:56.770Z,22.10
2017-11-11T05:03:24.394Z,22.10
2017-11-11T05:05:51.960Z,22.10
2017-11-11T05:08:19.548Z,22.10
2017-11-11T05:10:47.136Z,22.10
2017-11-11T05:13:14.683Z,22.10
2017-11-11T05:15:42.280Z,22.10
2017-11-11T05:18:10.706Z,22.10
2017-11-11T05:20:38.321Z,22.10
2017-11-11T05:23:06.722Z,22.10
2017-11-11T05:25:34.328Z,22.10
2017-11-11T05:28:01.865Z,22.10
2017-11-11T05:30:29.405Z,22.10
2017-11-11T05:32:56.980Z,22.10
2017-11-11T05:35:24.695Z,22.10
2017-11-11T05:37:53.113Z,22.10
2017-11-11T05:40:20.674Z,22.10
2017-11-11T05:42:48.415Z,22.10
2017-11-11T05:45:15.988Z,22.10
2017-11-11T05:47:43.541Z,22.10
2017-11-11T05:50:11.144Z,22.10
2017-11-11T05:52:38.769Z,22.10
2017-11-11T05:55:06.355Z,22.10
2017-11-11T05:57:33.912Z,22.00
2017-11-11T06:00:01.484Z,22.10
2017-11-11T06:02:29.073Z,22.10
2017-11-11T06:04:57.496Z,22.10
2017-11-11T06:07:25.133Z,22.10
2017-11-11T06:09:52.708Z,22.10
2017-11-11T06:12:20.314Z,22.10
2017-11-11T06:14:47.842Z,22.00
2017-11-11T06:17:15.426Z,22.00
2017-11-11T06:19:43.249Z,22.10
2017-11-11T06:22:10.784Z,22.00
2017-11-11T06:24:39.261Z,22.00
2017-11-11T06:27:07.615Z,22.10
2017-11-11T06:29:35.357Z,22.10
2017-11-11T06:32:02.897Z,22.10
2017-11-11T06:34:30.458Z,22.10
2017-11-11T06:36:58.018Z,22.10
2017-11-11T06:39:25.748Z,22.10
2017-11-11T06:41:54.061Z,22.10
2017-11-11T06:44:21.637Z,22.10
2017-11-11T06:46:49.235Z,22.10
2017-11-11T06:49:17.561Z,22.10
2017-11-11T06:51:45.141Z,22.10
2017-11-11T06:54:12.798Z,22.10
2017-11-11T06:56:40.371Z,22.10
2017-11-11T06:59:08.681Z,22.10
2017-11-11T07:01:37.052Z,22.10
2017-11-11T07:04:05.345Z,22.10
2017-11-11T07:06:32.966Z,22.10
2017-11-11T07:09:00.595Z,22.10
2017-11-11T07:11:28.198Z,22.10
2017-11-11T07:13:55.804Z,22.10
2017-11-11T07:16:23.347Z,22.10
2017-11-11T07:18:50.912Z,22.10
2017-11-11T07:21:18.519Z,22.10
2017-11-11T07:23:46.355Z,22.10
2017-11-11T07:26:13.917Z,22.20
2017-11-11T07:28:41.489Z,22.10
2017-11-11T07:31:09.103Z,22.10
2017-11-11T07:33:37.461Z,22.20
2017-11-11T07:36:05.037Z,22.20
2017-11-11T07:38:33.412Z,22.20
2017-11-11T07:41:01.842Z,22.20
2017-11-11T07:43:29.399Z,22.20
2017-11-11T07:45:56.995Z,22.20
2017-11-11T07:48:24.561Z,22.20
2017-11-11T07:50:52.907Z,22.20
2017-11-11T07:53:20.463Z,22.20
2017-11-11T07:55:48.131Z,22.20
2017-11-11T07:58:15.773Z,22.20
2017-11-11T08:00:43.629Z,22.20
2017-11-11T08:03:11.219Z,22.20
2017-11-11T08:05:38.797Z,22.30
2017-11-11T08:08:06.530Z,22.20
2017-11-11T08:10:34.087Z,22.20
2017-11-11T08:13:01.633Z,22.20
2017-11-11T08:15:29.220Z,22.20
2017-11-11T08:17:56.764Z,22.20
2017-11-11T08:20:24.463Z,22.20
2017-11-11T08:22:52.824Z,22.20
2017-11-11T08:25:20.445Z,22.20
2017-11-11T08:27:48.050Z,22.20
2017-11-11T08:30:16.396Z,22.20
2017-11-11T08:32:43.965Z,22.20
2017-11-11T08:35:11.550Z,22.30
2017-11-11T08:37:39.263Z,22.30
2017-11-11T08:40:06.941Z,22.30
2017-11-11T08:42:34.654Z,22.30
2017-11-11T08:45:02.379Z,22.30
2017-11-11T08:47:29.955Z,22.30
2017-11-11T08:49:57.519Z,22.30
2017-11-11T08:52:26.745Z,22.30
2017-11-11T08:54:55.127Z,22.30
2017-11-11T08:57:23.469Z,22.20
2017-11-11T08:59:51.072Z,22.30
2017-11-11T09:02:19.403Z,22.30
2017-11-11T09:04:47.016Z,22.20
2017-11-11T09:07:14.595Z,22.20
2017-11-11T09:09:42.179Z,22.30
2017-11-11T09:12:09.745Z,22.20
2017-11-11T09:14:37.328Z,22.20
2017-11-11T09:17:04.916Z,22.30
2017-11-11T09:19:32.535Z,22.30
2017-11-11T09:22:01.608Z,22.20
2017-11-11T09:24:29.167Z,22.20
2017-11-11T09:26:56.737Z,22.30
2017-11-11T09:29:24.456Z,22.20
2017-11-11T09:31:52.124Z,22.30
2017-11-11T09:34:19.691Z,22.30
2017-11-11T09:36:47.277Z,22.30
2017-11-11T09:39:15.018Z,22.30
2017-11-11T09:41:42.607Z,22.20
2017-11-11T09:44:10.252Z,22.20
2017-11-11T09:46:37.822Z,22.20
2017-11-11T09:49:05.364Z,22.20
2017-11-11T09:51:32.966Z,22.20
2017-11-11T09:54:00.526Z,22.20
2017-11-11T09:56:28.168Z,22.20
2017-11-11T09:58:55.745Z,22.20
2017-11-11T10:01:23.320Z,22.10
2017-11-11T10:03:51.684Z,22.10
2017-11-11T10:06:19.248Z,22.10
2017-11-11T10:08:47.596Z,22.10
2017-11-11T10:11:15.171Z,22.10
2017-11-11T10:13:42.775Z,22.10
2017-11-11T10:16:10.334Z,22.20
2017-11-11T10:18:37.913Z,22.10
2017-11-11T10:21:05.627Z,22.10
2017-11-11T10:23:34.110Z,22.20
2017-11-11T10:26:02.452Z,22.20
2017-11-11T10:28:30.044Z,22.20
2017-11-11T10:30:57.626Z,22.20
2017-11-11T10:33:25.984Z,22.20
2017-11-11T10:35:53.580Z,22.20
2017-11-11T10:38:21.168Z,22.20
2017-11-11T10:40:48.719Z,22.10
2017-11-11T10:43:16.316Z,22.20
2017-11-11T10:45:44.657Z,20.80
2017-11-11T10:48:12.209Z,22.20
2017-11-11T10:50:39.795Z,22.20
2017-11-11T10:53:07.367Z,22.20
2017-11-11T10:55:34.972Z,22.30
2017-11-11T10:58:02.542Z,22.30
2017-11-11T11:00:30.134Z,22.30
2017-11-11T11:02:57.694Z,22.30
2017-11-11T11:05:25.240Z,22.20
2017-11-11T11:07:52.809Z,22.20
2017-11-11T11:10:20.542Z,22.20
2017-11-11T11:12:48.138Z,22.20
2017-11-11T11:15:15.660Z,22.20
2017-11-11T11:17:43.328Z,22.20
2017-11-11T11:20:10.884Z,22.20
2017-11-11T11:22:38.567Z,22.20
2017-11-11T11:25:06.147Z,22.20
2017-11-11T11:27:33.726Z,22.20
2017-11-11T11:30:02.156Z,22.20
2017-11-11T11:32:29.723Z,22.20
2017-11-11T11:34:57.316Z,22.20
2017-11-11T11:37:26.363Z,22.20
2017-11-11T11:39:53.940Z,22.20
2017-11-11T11:42:21.644Z,22.20
2017-11-11T11:44:49.964Z,22.20
2017-11-11T11:47:17.552Z,22.20
2017-11-11T11:49:45.108Z,22.20
2017-11-11T11:52:12.698Z,22.20
2017-11-11T11:54:41.114Z,22.20
2017-11-11T11:57:08.662Z,22.20
2017-11-11T11:59:36.259Z,22.20
2017-11-11T12:02:03.848Z,22.20
2017-11-11T12:04:31.570Z,22.20
2017-11-11T12:06:59.187Z,22.20
2017-11-11T12:09:27.511Z,22.20
2017-11-11T12:11:55.096Z,22.20
2017-11-11T12:14:22.650Z,22.20
2017-11-11T12:16:50.324Z,22.20
2017-11-11T12:19:17.914Z,22.20
2017-11-11T12:21:46.232Z,22.20
2017-11-11T12:24:13.820Z,22.20
2017-11-11T12:26:41.542Z,22.20
2017-11-11T12:29:09.139Z,22.20
2017-11-11T12:34:40.660Z,22.30
2017-11-11T12:37:08.227Z,22.20
2017-11-11T12:39:36.615Z,22.30
2017-11-11T12:42:04.950Z,22.30
2017-11-11T12:44:32.629Z,22.30
2017-11-11T12:47:00.256Z,22.30
2017-11-11T12:49:27.826Z,22.30
2017-11-11T12:51:55.415Z,22.30
2017-11-11T12:54:23.732Z,22.30
2017-11-11T12:56:51.278Z,22.30
2017-11-11T12:59:18.896Z,22.40
2017-11-11T13:01:46.458Z,22.40
2017-11-11T13:04:14.053Z,22.40
2017-11-11T13:06:42.386Z,22.40
2017-11-11T13:09:09.953Z,22.40
2017-11-11T13:11:37.586Z,22.40
2017-11-11T13:14:05.986Z,22.40
2017-11-11T13:16:33.527Z,22.40
2017-11-11T13:19:01.323Z,22.50
2017-11-11T13:21:28.897Z,22.50
2017-11-11T13:23:56.520Z,22.50
2017-11-11T13:26:24.089Z,22.50
2017-11-11T13:28:51.674Z,22.50
2017-11-11T13:31:19.259Z,22.50
2017-11-11T13:33:47.607Z,22.50
2017-11-11T13:36:15.172Z,22.50
2017-11-11T13:38:42.797Z,22.50
2017-11-11T13:41:10.375Z,22.50
2017-11-11T13:43:38.055Z,22.50
2017-11-11T13:46:05.659Z,22.50
2017-11-11T13:48:33.367Z,22.50
2017-11-11T13:51:00.916Z,22.50
2017-11-11T13:53:28.536Z,22.50
2017-11-11T13:55:56.121Z,22.50
2017-11-11T13:58:23.698Z,22.50
2017-11-11T14:00:51.496Z,22.50
2017-11-11T14:03:19.851Z,22.50
2017-11-11T14:05:47.406Z,22.40
2017-11-11T14:08:14.986Z,22.50
2017-11-11T14:10:42.614Z,22.50
2017-11-11T14:13:10.191Z,22.50
2017-11-11T14:15:37.729Z,22.40
2017-11-11T14:18:05.336Z,22.40
2017-11-11T14:20:32.961Z,22.40
2017-11-11T14:23:00.505Z,22.40
2017-11-11T14:25:28.107Z,22.40
2017-11-11T14:27:57.189Z,22.40
2017-11-11T14:30:24.851Z,22.40
2017-11-11T14:32:52.464Z,22.40
2017-11-11T14:35:20.017Z,22.40
2017-11-11T14:37:47.560Z,22.40
2017-11-11T14:40:16.083Z,22.40
2017-11-11T14:42:43.675Z,22.40
2017-11-11T14:45:11.276Z,22.40
2017-11-11T14:47:38.851Z,22.40
2017-11-11T14:50:06.429Z,22.40
2017-11-11T14:52:33.967Z,22.30
2017-11-11T14:55:01.603Z,22.30
2017-11-11T14:57:29.963Z,22.30
2017-11-11T14:59:57.536Z,22.30
2017-11-11T15:02:25.852Z,22.30
2017-11-11T15:04:53.444Z,22.30
2017-11-11T15:07:21.877Z,22.30
2017-11-11T15:09:49.467Z,22.30
2017-11-11T15:12:17.225Z,22.30
2017-11-11T15:14:44.809Z,22.20
2017-11-11T15:17:12.393Z,22.30
2017-11-11T15:19:40.749Z,22.20
2017-11-11T15:22:08.371Z,22.20
2017-11-11T15:24:35.968Z,22.20
2017-11-11T15:27:03.691Z,22.20
2017-11-11T15:29:32.209Z,22.20
2017-11-11T15:31:59.792Z,22.20
2017-11-11T15:34:28.150Z,22.20
2017-11-11T15:36:56.459Z,22.10
2017-11-11T15:39:25.084Z,22.10
2017-11-11T15:41:53.349Z,22.10
2017-11-11T15:44:21.070Z,22.10
2017-11-11T15:46:49.412Z,22.20
2017-11-11T15:49:17.010Z,22.20
2017-11-11T15:51:44.571Z,22.20
2017-11-11T15:54:12.952Z,22.30
2017-11-11T15:56:41.281Z,22.30
2017-11-11T15:59:08.971Z,22.30
2017-11-11T16:01:37.501Z,22.30
2017-11-11T16:04:05.129Z,22.30
2017-11-11T16:06:33.435Z,20.80
2017-11-11T16:09:01.002Z,20.80
2017-11-11T16:11:28.623Z,19.60
2017-11-11T16:13:56.173Z,19.20
2017-11-11T16:16:23.767Z,19.00
2017-11-11T16:18:51.435Z,19.00
2017-11-11T16:21:19.011Z,19.50
2017-11-11T16:23:46.717Z,19.90
2017-11-11T16:26:14.390Z,20.30
2017-11-11T16:28:42.728Z,20.70
2017-11-11T16:31:10.314Z,20.70
2017-11-11T16:33:37.927Z,20.90
2017-11-11T16:36:05.507Z,21.10
2017-11-11T16:38:33.288Z,21.30
2017-11-11T16:41:00.873Z,21.40
2017-11-11T16:43:29.228Z,21.50
2017-11-11T16:45:56.885Z,21.50
2017-11-11T16:48:24.472Z,21.60
2017-11-11T16:50:52.049Z,21.70
2017-11-11T16:53:20.396Z,21.80
2017-11-11T16:55:48.016Z,21.80
2017-11-11T16:58:15.642Z,21.80
2017-11-11T17:00:44.110Z,21.80
2017-11-11T17:03:12.468Z,21.80
2017-11-11T17:05:40.103Z,21.80
2017-11-11T17:08:07.669Z,21.80
2017-11-11T17:10:35.409Z,21.90
2017-11-11T17:13:03.016Z,21.90
2017-11-11T17:15:31.378Z,21.90
2017-11-11T17:17:58.930Z,21.80
2017-11-11T17:20:26.630Z,21.90
2017-11-11T17:22:55.000Z,21.90
2017-11-11T17:25:22.616Z,21.90
2017-11-11T17:27:50.259Z,21.90
2017-11-11T17:30:17.911Z,21.90
2017-11-11T17:32:46.324Z,21.90
2017-11-11T17:35:14.090Z,21.80
2017-11-11T17:37:41.838Z,21.90
2017-11-11T17:40:09.463Z,21.90
2017-11-11T17:42:37.025Z,21.90
2017-11-11T17:45:05.389Z,21.90
2017-11-11T17:47:32.967Z,21.90
2017-11-11T17:50:01.380Z,21.90
2017-11-11T17:52:28.966Z,21.90
2017-11-11T17:54:56.536Z,21.90
2017-11-11T17:57:24.108Z,21.90
2017-11-11T17:59:52.565Z,21.90
2017-11-11T18:02:20.133Z,21.90
2017-11-11T18:04:47.738Z,21.90
2017-11-11T18:07:16.085Z,21.90
2017-11-11T18:09:43.719Z,22.00
2017-11-11T18:12:11.292Z,22.00
2017-11-11T18:14:38.858Z,22.00
2017-11-11T18:17:06.476Z,22.00
2017-11-11T18:19:34.031Z,22.00
2017-11-11T18:22:01.584Z,22.00
2017-11-11T18:24:29.179Z,22.00
2017-11-11T18:26:56.826Z,22.00
2017-11-11T18:29:24.431Z,22.00
2017-11-11T18:31:52.128Z,22.00
2017-11-11T18:34:20.466Z,22.00
2017-11-11T18:36:48.092Z,22.00
2017-11-11T18:39:15.667Z,22.00
2017-11-11T18:41:43.244Z,22.00
2017-11-11T18:44:10.829Z,22.00
2017-11-11T18:46:39.144Z,22.10
2017-11-11T18:49:06.821Z,22.10
2017-11-11T18:51:34.464Z,22.10
2017-11-11T18:54:02.554Z,22.10
2017-11-11T18:56:30.149Z,22.10
2017-11-11T18:58:57.951Z,22.10
2017-11-11T19:01:25.529Z,22.10
2017-11-11T19:03:53.284Z,22.10
2017-11-11T19:06:20.832Z,22.10
2017-11-11T19:08:48.421Z,22.10
2017-11-11T19:11:16.174Z,22.10
2017-11-11T19:13:43.780Z,22.10
2017-11-11T19:16:11.393Z,22.10
2017-11-11T19:18:39.032Z,22.10
2017-11-11T19:21:07.383Z,22.10
2017-11-11T19:23:34.967Z,22.10
2017-11-11T19:26:03.342Z,22.10
2017-11-11T19:28:31.848Z,22.10
2017-11-11T19:30:59.398Z,22.10
2017-11-11T19:33:27.015Z,22.10
2017-11-11T19:35:54.640Z,22.10
2017-11-11T19:38:22.243Z,22.10
2017-11-11T19:40:49.826Z,22.10
2017-11-11T19:43:18.200Z,22.20
2017-11-11T19:45:46.567Z,22.20
2017-11-11T19:48:14.942Z,22.20
2017-11-11T19:50:43.329Z,22.20
2017-11-11T19:53:11.676Z,22.20
2017-11-11T19:55:39.271Z,22.20
2017-11-11T19:58:07.615Z,22.20
2017-11-11T20:00:35.293Z,22.20
2017-11-11T20:03:03.724Z,22.20
2017-11-11T20:05:31.277Z,22.20
2017-11-11T20:07:59.051Z,22.20
2017-11-11T20:10:26.786Z,22.20
2017-11-11T20:12:55.128Z,22.20
2017-11-11T20:15:22.857Z,22.20
2017-11-11T20:17:50.497Z,22.30
2017-11-11T20:20:18.166Z,22.30
2017-11-11T20:22:45.755Z,22.30
2017-11-11T20:25:13.310Z,22.30
2017-11-11T20:27:40.926Z,22.40
2017-11-11T20:30:09.271Z,22.40
2017-11-11T20:32:36.860Z,22.40
2017-11-11T20:35:05.231Z,22.40
2017-11-11T20:37:32.795Z,22.40
2017-11-11T20:40:01.152Z,22.40
2017-11-11T20:42:28.731Z,22.40
2017-11-11T20:44:57.062Z,22.40
2017-11-11T20:47:24.672Z,22.40
2017-11-11T20:49:53.180Z,22.40
2017-11-11T20:52:20.731Z,22.40
2017-11-11T20:54:48.318Z,22.40
2017-11-11T20:57:15.942Z,22.40
2017-11-11T20:59:44.332Z,22.30
2017-11-11T21:02:11.963Z,22.30
2017-11-11T21:04:39.539Z,22.30
2017-11-11T21:07:07.984Z,22.30
2017-11-11T21:09:35.630Z,22.30
2017-11-11T21:12:03.293Z,22.30
2017-11-11T21:14:30.898Z,22.30
2017-11-11T21:16:59.251Z,22.40
2017-11-11T21:19:26.868Z,22.30
2017-11-11T21:21:54.506Z,22.30
2017-11-11T21:24:23.237Z,22.30
2017-11-11T21:26:50.783Z,22.30
2017-11-11T21:29:18.405Z,22.30
2017-11-11T21:31:46.741Z,22.40
2017-11-11T21:34:14.325Z,22.30
2017-11-11T21:36:41.964Z,22.30
2017-11-11T21:39:09.524Z,22.40
2017-11-11T21:41:37.324Z,22.40
2017-11-11T21:44:05.845Z,22.30
2017-11-11T21:46:33.428Z,22.40
2017-11-11T21:49:01.058Z,22.40
2017-11-11T21:51:28.647Z,22.30
2017-11-11T21:53:56.217Z,22.40
2017-11-11T21:56:23.804Z,22.30
2017-11-11T21:58:51.419Z,22.30
2017-11-11T22:01:19.006Z,22.30
2017-11-11T22:03:46.658Z,22.30
2017-11-11T22:06:14.435Z,22.30
2017-11-11T22:08:42.149Z,22.30
2017-11-11T22:11:09.712Z,22.30
2017-11-11T22:13:37.311Z,22.30
2017-11-11T22:16:04.899Z,22.30
2017-11-11T22:18:33.265Z,22.30
2017-11-11T22:21:00.844Z,22.30
2017-11-11T22:23:29.191Z,22.30
2017-11-11T22:25:56.779Z,22.30
2017-11-11T22:28:25.115Z,22.30
2017-11-11T22:30:52.660Z,22.20
2017-11-11T22:33:20.270Z,22.30
2017-11-11T22:35:48.586Z,22.30
2017-11-11T22:38:16.185Z,22.20
2017-11-11T22:40:43.738Z,22.20
2017-11-11T22:43:11.334Z,22.30
2017-11-11T22:45:39.660Z,22.30
2017-11-11T22:48:07.260Z,22.20
2017-11-11T22:50:35.593Z,22.30
2017-11-11T22:53:03.244Z,22.30
2017-11-11T22:55:30.817Z,22.30
2017-11-11T22:57:58.389Z,22.30
2017-11-11T23:00:44.705Z,22.30
2017-11-11T23:03:12.280Z,22.30
2017-11-11T23:05:40.646Z,22.30
2017-11-11T23:08:08.416Z,22.30
2017-11-11T23:10:36.739Z,22.30
2017-11-11T23:13:04.542Z,22.30
2017-11-11T23:15:32.175Z,22.30
2017-11-11T23:17:59.756Z,22.30
2017-11-11T23:20:27.311Z,22.30
2017-11-11T23:22:54.947Z,22.40
2017-11-11T23:25:22.523Z,22.40
2017-11-11T23:27:50.255Z,22.40
2017-11-11T23:30:17.864Z,22.30
2017-11-11T23:32:45.425Z,22.30
2017-11-11T23:35:12.967Z,22.30
2017-11-11T23:37:40.562Z,22.30
2017-11-11T23:40:08.113Z,22.30
2017-11-11T23:42:35.703Z,22.30
2017-11-11T23:45:04.095Z,22.30
2017-11-11T23:47:31.649Z,22.20
2017-11-11T23:49:59.311Z,22.30
2017-11-11T23:52:27.673Z,22.30
2017-11-11T23:54:56.014Z,22.30
2017-11-11T23:57:23.567Z,22.20
2017-11-11T23:59:51.142Z,22.20
